sensor_id;sensor_type;location;lat;lon;timestamp;pressure;altitude;pressure_sealevel;temperature;humidity
5996;BME280;3026;53.612;7.278;2023-03-14T00:00:06;98493.28;;;10.95;100.00
5996;BME280;3026;53.612;7.278;2023-03-14T00:02:34;98496.22;;;10.93;100.00
5996;BME280;3026;53.612;7.278;2023-03-14T00:05:01;98496.22;;;10.93;100.00
5996;BME280;3026;53.612;7.278;2023-03-14T00:07:32;98483.66;;;10.92;100.00
5996;BME280;3026;53.612;7.278;2023-03-14T00:10:01;98483.66;;;10.92;100.00
5996;BME280;3026;53.612;7.278;2023-03-14T00:12:29;98485.78;;;10.90;100.00
5996;BME280;3026;53.612;7.278;2023-03-14T00:14:56;98489.13;;;10.92;100.00
5996;BME280;3026;53.612;7.278;2023-03-14T00:17:26;98492.53;;;10.88;100.00
5996;BME280;3026;53.612;7.278;2023-03-14T00:19:53;98491.69;;;10.87;100.00
5996;BME280;3026;53.612;7.278;2023-03-14T00:22:19;98500.50;;;10.89;100.00
5996;BME280;3026;53.612;7.278;2023-03-14T00:24:46;98497.13;;;10.87;100.00
5996;BME280;3026;53.612;7.278;2023-03-14T00:27:13;98497.13;;;10.87;100.00
5996;BME280;3026;53.612;7.278;2023-03-14T00:29:42;98481.84;;;10.86;100.00
5996;BME280;3026;53.612;7.278;2023-03-14T00:32:09;98470.34;;;10.84;100.00
5996;BME280;3026;53.612;7.278;2023-03-14T00:34:37;98474.16;;;10.83;100.00
5996;BME280;3026;53.612;7.278;2023-03-14T00:37:05;98477.34;;;10.80;100.00
5996;BME280;3026;53.612;7.278;2023-03-14T00:39:32;98483.03;;;10.78;100.00
5996;BME280;3026;53.612;7.278;2023-03-14T00:41:59;98488.72;;;10.77;100.00
5996;BME280;3026;53.612;7.278;2023-03-14T00:44:26;98496.88;;;10.77;100.00
5996;BME280;3026;53.612;7.278;2023-03-14T00:46:53;98479.31;;;10.73;100.00
5996;BME280;3026;53.612;7.278;2023-03-14T00:49:19;98479.31;;;10.73;100.00
5996;BME280;3026;53.612;7.278;2023-03-14T00:51:48;98479.78;;;10.70;100.00
5996;BME280;3026;53.612;7.278;2023-03-14T00:54:15;98472.69;;;10.69;100.00
5996;BME280;3026;53.612;7.278;2023-03-14T00:56:41;98469.78;;;10.64;100.00
5996;BME280;3026;53.612;7.278;2023-03-14T00:59:08;98480.25;;;10.67;100.00
5996;BME280;3026;53.612;7.278;2023-03-14T01:01:35;98485.94;;;10.65;100.00
5996;BME280;3026;53.612;7.278;2023-03-14T01:04:02;98479.63;;;10.65;100.00
5996;BME280;3026;53.612;7.278;2023-03-14T01:06:29;98480.25;;;10.67;100.00
5996;BME280;3026;53.612;7.278;2023-03-14T01:08:57;98473.16;;;10.66;100.00
5996;BME280;3026;53.612;7.278;2023-03-14T01:11:27;98457.84;;;10.65;100.00
5996;BME280;3026;53.612;7.278;2023-03-14T01:13:55;98446.94;;;10.65;100.00
5996;BME280;3026;53.612;7.278;2023-03-14T01:16:24;98437.94;;;10.64;100.00
5996;BME280;3026;53.612;7.278;2023-03-14T01:18:52;98444.69;;;10.62;100.00
5996;BME280;3026;53.612;7.278;2023-03-14T01:21:20;98447.88;;;10.59;100.00
5996;BME280;3026;53.612;7.278;2023-03-14T01:23:48;98447.28;;;10.57;100.00
5996;BME280;3026;53.612;7.278;2023-03-14T01:26:18;98449.41;;;10.55;100.00
5996;BME280;3026;53.612;7.278;2023-03-14T01:28:46;98456.94;;;10.52;100.00
5996;BME280;3026;53.612;7.278;2023-03-14T01:31:13;98453.88;;;10.49;100.00
5996;BME280;3026;53.612;7.278;2023-03-14T01:33:41;98450.31;;;10.48;100.00
5996;BME280;3026;53.612;7.278;2023-03-14T01:36:09;98442.38;;;10.47;100.00
5996;BME280;3026;53.612;7.278;2023-03-14T01:38:37;98447.81;;;10.47;100.00
5996;BME280;3026;53.612;7.278;2023-03-14T01:41:06;98445.94;;;10.47;100.00
5996;BME280;3026;53.612;7.278;2023-03-14T01:43:34;98445.34;;;10.45;100.00
5996;BME280;3026;53.612;7.278;2023-03-14T01:46:24;98432.31;;;10.47;100.00
5996;BME280;3026;53.612;7.278;2023-03-14T01:48:58;98432.31;;;10.47;100.00
5996;BME280;3026;53.612;7.278;2023-03-14T01:51:29;98439.41;;;10.48;100.00
5996;BME280;3026;53.612;7.278;2023-03-14T01:54:02;98428.53;;;10.48;100.00
5996;BME280;3026;53.612;7.278;2023-03-14T01:56:31;98439.41;;;10.48;100.00
5996;BME280;3026;53.612;7.278;2023-03-14T01:59:01;98418.44;;;10.49;100.00
5996;BME280;3026;53.612;7.278;2023-03-14T02:01:30;98433.06;;;10.55;100.00
5996;BME280;3026;53.612;7.278;2023-03-14T02:04:01;98417.91;;;10.59;100.00
5996;BME280;3026;53.612;7.278;2023-03-14T02:06:35;98413.28;;;10.59;100.00
5996;BME280;3026;53.612;7.278;2023-03-14T02:09:06;98413.19;;;10.66;100.00
5996;BME280;3026;53.612;7.278;2023-03-14T02:11:34;98416.88;;;10.71;100.00
5996;BME280;3026;53.612;7.278;2023-03-14T02:14:02;98410.13;;;10.74;100.00
5996;BME280;3026;53.612;7.278;2023-03-14T02:16:30;98402.53;;;10.76;100.00
5996;BME280;3026;53.612;7.278;2023-03-14T02:18:57;98393.91;;;10.79;100.00
5996;BME280;3026;53.612;7.278;2023-03-14T02:21:34;98392.84;;;10.80;100.00
5996;BME280;3026;53.612;7.278;2023-03-14T02:24:08;98407.06;;;10.82;100.00
5996;BME280;3026;53.612;7.278;2023-03-14T02:26:38;98402.44;;;10.82;100.00
5996;BME280;3026;53.612;7.278;2023-03-14T02:29:09;98392.84;;;10.80;100.00
5996;BME280;3026;53.612;7.278;2023-03-14T02:31:36;98393.78;;;10.86;100.00
5996;BME280;3026;53.612;7.278;2023-03-14T02:34:03;98396.53;;;10.86;100.00
5996;BME280;3026;53.612;7.278;2023-03-14T02:36:30;98386.69;;;10.85;100.00
5996;BME280;3026;53.612;7.278;2023-03-14T02:39:03;98404.03;;;10.90;100.00
5996;BME280;3026;53.612;7.278;2023-03-14T02:41:31;98390.25;;;10.85;100.00
5996;BME280;3026;53.612;7.278;2023-03-14T02:43:59;98388.09;;;10.87;100.00
5996;BME280;3026;53.612;7.278;2023-03-14T02:46:27;98383.13;;;10.84;100.00
5996;BME280;3026;53.612;7.278;2023-03-14T02:48:57;98398.56;;;10.90;100.00
5996;BME280;3026;53.612;7.278;2023-03-14T02:51:26;98395.22;;;10.88;100.00
5996;BME280;3026;53.612;7.278;2023-03-14T02:53:54;98399.00;;;10.87;100.00
5996;BME280;3026;53.612;7.278;2023-03-14T02:56:21;98402.81;;;10.86;100.00
5996;BME280;3026;53.612;7.278;2023-03-14T02:58:48;98400.06;;;10.86;100.00
5996;BME280;3026;53.612;7.278;2023-03-14T03:01:17;98395.69;;;10.85;100.00
5996;BME280;3026;53.612;7.278;2023-03-14T03:03:45;98388.00;;;10.82;100.00
5996;BME280;3026;53.612;7.278;2023-03-14T03:06:12;98390.38;;;10.78;100.00
5996;BME280;3026;53.612;7.278;2023-03-14T03:08:39;98391.63;;;10.76;100.00
5996;BME280;3026;53.612;7.278;2023-03-14T03:11:06;98380.38;;;10.72;100.00
5996;BME280;3026;53.612;7.278;2023-03-14T03:13:33;98387.50;;;10.73;100.00
5996;BME280;3026;53.612;7.278;2023-03-14T03:16:00;98384.41;;;10.70;100.00
5996;BME280;3026;53.612;7.278;2023-03-14T03:18:27;98394.72;;;10.68;100.00
5996;BME280;3026;53.612;7.278;2023-03-14T03:20:56;98377.78;;;10.66;100.00
5996;BME280;3026;53.612;7.278;2023-03-14T03:23:25;98377.97;;;10.64;100.00
5996;BME280;3026;53.612;7.278;2023-03-14T03:25:52;98372.16;;;10.61;100.00
5996;BME280;3026;53.612;7.278;2023-03-14T03:28:19;98385.19;;;10.59;100.00
5996;BME280;3026;53.612;7.278;2023-03-14T03:30:47;98371.00;;;10.57;100.00
5996;BME280;3026;53.612;7.278;2023-03-14T03:33:14;98376.91;;;10.54;100.00
5996;BME280;3026;53.612;7.278;2023-03-14T03:35:45;98368.75;;;10.54;100.00
5996;BME280;3026;53.612;7.278;2023-03-14T03:38:14;98375.22;;;10.52;100.00
5996;BME280;3026;53.612;7.278;2023-03-14T03:40:42;98369.41;;;10.49;100.00
5996;BME280;3026;53.612;7.278;2023-03-14T03:43:09;98368.00;;;10.46;100.00
5996;BME280;3026;53.612;7.278;2023-03-14T03:45:36;98381.63;;;10.46;100.00
5996;BME280;3026;53.612;7.278;2023-03-14T03:48:03;98378.28;;;10.44;100.00
5996;BME280;3026;53.612;7.278;2023-03-14T03:50:30;98378.75;;;10.41;100.00
5996;BME280;3026;53.612;7.278;2023-03-14T03:52:57;98377.69;;;10.42;100.00
5996;BME280;3026;53.612;7.278;2023-03-14T03:55:25;98380.44;;;10.42;100.00
5996;BME280;3026;53.612;7.278;2023-03-14T03:57:53;98375.41;;;10.39;100.00
5996;BME280;3026;53.612;7.278;2023-03-14T04:00:20;98382.53;;;10.40;100.00
5996;BME280;3026;53.612;7.278;2023-03-14T04:02:47;98389.03;;;10.39;100.00
5996;BME280;3026;53.612;7.278;2023-03-14T04:05:14;98388.44;;;10.37;100.00
5996;BME280;3026;53.612;7.278;2023-03-14T04:07:40;98381.81;;;10.33;100.00
5996;BME280;3026;53.612;7.278;2023-03-14T04:10:08;98387.25;;;10.33;100.00
5996;BME280;3026;53.612;7.278;2023-03-14T04:12:36;98390.56;;;10.35;100.00
5996;BME280;3026;53.612;7.278;2023-03-14T04:15:04;98398.16;;;10.33;100.00
5996;BME280;3026;53.612;7.278;2023-03-14T04:17:31;98387.94;;;10.29;100.00
5996;BME280;3026;53.612;7.278;2023-03-14T04:19:58;98377.72;;;10.24;100.00
5996;BME280;3026;53.612;7.278;2023-03-14T04:22:25;98370.63;;;10.23;100.00
5996;BME280;3026;53.612;7.278;2023-03-14T04:24:51;98372.13;;;10.19;100.00
5996;BME280;3026;53.612;7.278;2023-03-14T04:27:18;98379.91;;;10.15;100.00
5996;BME280;3026;53.612;7.278;2023-03-14T04:29:47;98372.91;;;10.08;100.00
5996;BME280;3026;53.612;7.278;2023-03-14T04:32:13;98383.78;;;10.08;100.00
5996;BME280;3026;53.612;7.278;2023-03-14T04:34:41;98384.69;;;10.02;100.00
5996;BME280;3026;53.612;7.278;2023-03-14T04:37:07;98376.41;;;9.97;100.00
5996;BME280;3026;53.612;7.278;2023-03-14T04:39:34;98382.28;;;9.93;100.00
5996;BME280;3026;53.612;7.278;2023-03-14T04:42:01;98381.06;;;9.89;100.00
5996;BME280;3026;53.612;7.278;2023-03-14T04:44:28;98378.59;;;9.88;100.00
5996;BME280;3026;53.612;7.278;2023-03-14T04:46:56;98371.91;;;9.84;100.00
5996;BME280;3026;53.612;7.278;2023-03-14T04:49:23;98361.72;;;9.79;100.00
5996;BME280;3026;53.612;7.278;2023-03-14T04:51:50;98368.22;;;9.78;100.00
5996;BME280;3026;53.612;7.278;2023-03-14T04:54:18;98359.00;;;9.79;100.00
5996;BME280;3026;53.612;7.278;2023-03-14T04:56:44;98369.91;;;9.79;100.00
5996;BME280;3026;53.612;7.278;2023-03-14T04:59:11;98363.25;;;9.75;100.00
5996;BME280;3026;53.612;7.278;2023-03-14T05:01:38;98350.72;;;9.74;100.00
5996;BME280;3026;53.612;7.278;2023-03-14T05:04:07;98355.09;;;9.75;100.00
5996;BME280;3026;53.612;7.278;2023-03-14T05:06:34;98347.38;;;9.72;100.00
5996;BME280;3026;53.612;7.278;2023-03-14T05:09:01;98334.81;;;9.71;100.00
5996;BME280;3026;53.612;7.278;2023-03-14T05:11:30;98346.16;;;9.68;100.00
5996;BME280;3026;53.612;7.278;2023-03-14T05:13:57;98353.88;;;9.71;100.00
5996;BME280;3026;53.612;7.278;2023-03-14T05:16:24;98351.16;;;9.71;100.00
5996;BME280;3026;53.612;7.278;2023-03-14T05:18:51;98342.38;;;9.69;100.00
5996;BME280;3026;53.612;7.278;2023-03-14T05:21:20;98339.06;;;9.67;100.00
5996;BME280;3026;53.612;7.278;2023-03-14T05:23:46;98340.72;;;9.68;100.00
5996;BME280;3026;53.612;7.278;2023-03-14T05:26:13;98351.38;;;9.70;100.00
5996;BME280;3026;53.612;7.278;2023-03-14T05:28:42;98346.16;;;9.68;100.00
5996;BME280;3026;53.612;7.278;2023-03-14T05:31:09;98342.38;;;9.69;100.00
5996;BME280;3026;53.612;7.278;2023-03-14T05:33:36;98330.31;;;9.65;100.00
5996;BME280;3026;53.612;7.278;2023-03-14T05:36:07;98343.69;;;9.67;100.00
5996;BME280;3026;53.612;7.278;2023-03-14T05:38:35;98342.84;;;9.66;100.00
5996;BME280;3026;53.612;7.278;2023-03-14T05:41:02;98332.84;;;9.60;100.00
5996;BME280;3026;53.612;7.278;2023-03-14T05:43:29;98337.28;;;9.61;100.00
5996;BME280;3026;53.612;7.278;2023-03-14T05:45:56;98346.25;;;9.61;100.00
5996;BME280;3026;53.612;7.278;2023-03-14T05:48:23;98349.19;;;9.60;100.00
5996;BME280;3026;53.612;7.278;2023-03-14T05:50:54;98348.59;;;9.58;100.00
5996;BME280;3026;53.612;7.278;2023-03-14T05:53:21;98355.53;;;9.54;100.00
5996;BME280;3026;53.612;7.278;2023-03-14T05:55:52;98344.66;;;9.54;100.00
5996;BME280;3026;53.612;7.278;2023-03-14T05:58:19;98350.56;;;9.51;100.00
5996;BME280;3026;53.612;7.278;2023-03-14T06:00:46;98350.56;;;9.51;100.00
5996;BME280;3026;53.612;7.278;2023-03-14T06:03:12;98338.03;;;9.50;100.00
5996;BME280;3026;53.612;7.278;2023-03-14T06:05:40;98354.34;;;9.50;100.00
5996;BME280;3026;53.612;7.278;2023-03-14T06:08:06;98354.34;;;9.50;100.00
5996;BME280;3026;53.612;7.278;2023-03-14T06:10:34;98346.38;;;9.48;100.00
5996;BME280;3026;53.612;7.278;2023-03-14T06:13:03;98356.44;;;9.48;100.00
5996;BME280;3026;53.612;7.278;2023-03-14T06:15:30;98356.44;;;9.48;100.00
5996;BME280;3026;53.612;7.278;2023-03-14T06:17:58;98354.78;;;9.47;100.00
5996;BME280;3026;53.612;7.278;2023-03-14T06:20:25;98352.66;;;9.49;100.00
5996;BME280;3026;53.612;7.278;2023-03-14T06:22:52;98363.16;;;9.45;100.00
5996;BME280;3026;53.612;7.278;2023-03-14T06:25:19;98358.56;;;9.46;100.00
5996;BME280;3026;53.612;7.278;2023-03-14T06:27:45;98362.34;;;9.45;100.00
5996;BME280;3026;53.612;7.278;2023-03-14T06:30:14;98362.34;;;9.45;100.00
5996;BME280;3026;53.612;7.278;2023-03-14T06:32:41;98363.16;;;9.45;100.00
5996;BME280;3026;53.612;7.278;2023-03-14T06:35:08;98372.38;;;9.44;100.00
5996;BME280;3026;53.612;7.278;2023-03-14T06:37:35;98378.28;;;9.41;100.00
5996;BME280;3026;53.612;7.278;2023-03-14T06:40:02;98388.31;;;9.41;100.00
5996;BME280;3026;53.612;7.278;2023-03-14T06:42:30;98394.19;;;9.38;100.00
5996;BME280;3026;53.612;7.278;2023-03-14T06:44:57;98447.59;;;9.32;100.00
5996;BME280;3026;53.612;7.278;2023-03-14T06:47:25;98476.44;;;9.08;100.00
5996;BME280;3026;53.612;7.278;2023-03-14T06:49:52;98486.78;;;8.61;100.00
5996;BME280;3026;53.612;7.278;2023-03-14T06:52:19;98500.31;;;8.16;100.00
5996;BME280;3026;53.612;7.278;2023-03-14T06:54:45;98500.38;;;7.90;100.00
5996;BME280;3026;53.612;7.278;2023-03-14T06:57:12;98519.22;;;7.65;100.00
5996;BME280;3026;53.612;7.278;2023-03-14T06:59:39;98525.06;;;7.42;100.00
5996;BME280;3026;53.612;7.278;2023-03-14T07:02:08;98526.94;;;7.22;100.00
5996;BME280;3026;53.612;7.278;2023-03-14T07:04:38;98549.66;;;7.08;100.00
5996;BME280;3026;53.612;7.278;2023-03-14T07:07:05;98554.63;;;6.97;100.00
5996;BME280;3026;53.612;7.278;2023-03-14T07:09:32;98578.31;;;6.82;100.00
5996;BME280;3026;53.612;7.278;2023-03-14T07:11:58;98592.84;;;6.68;100.00
5996;BME280;3026;53.612;7.278;2023-03-14T07:14:25;98607.38;;;6.54;100.00
5996;BME280;3026;53.612;7.278;2023-03-14T07:16:52;98619.81;;;6.41;100.00
5996;BME280;3026;53.612;7.278;2023-03-14T07:19:19;98644.25;;;6.20;100.00
5996;BME280;3026;53.612;7.278;2023-03-14T07:21:47;98649.06;;;5.97;100.00
5996;BME280;3026;53.612;7.278;2023-03-14T07:24:14;98646.34;;;5.75;100.00
5996;BME280;3026;53.612;7.278;2023-03-14T07:26:41;98659.13;;;5.60;100.00
5996;BME280;3026;53.612;7.278;2023-03-14T07:29:08;98674.69;;;5.37;100.00
5996;BME280;3026;53.612;7.278;2023-03-14T07:31:35;98689.84;;;5.16;100.00
5996;BME280;3026;53.612;7.278;2023-03-14T07:34:01;98703.84;;;5.05;100.00
5996;BME280;3026;53.612;7.278;2023-03-14T07:36:28;98718.13;;;4.99;100.00
5996;BME280;3026;53.612;7.278;2023-03-14T07:38:57;98727.72;;;4.87;100.00
5996;BME280;3026;53.612;7.278;2023-03-14T07:41:23;98738.63;;;4.79;100.00
5996;BME280;3026;53.612;7.278;2023-03-14T07:43:50;98759.84;;;4.67;100.00
5996;BME280;3026;53.612;7.278;2023-03-14T07:46:17;98756.56;;;4.57;100.00
5996;BME280;3026;53.612;7.278;2023-03-14T07:48:44;98776.75;;;4.61;100.00
5996;BME280;3026;53.612;7.278;2023-03-14T07:51:11;98780.97;;;4.63;100.00
5996;BME280;3026;53.612;7.278;2023-03-14T07:53:38;98788.03;;;4.64;100.00
5996;BME280;3026;53.612;7.278;2023-03-14T07:56:07;98805.53;;;4.68;100.00
5996;BME280;3026;53.612;7.278;2023-03-14T07:58:34;98800.84;;;4.62;100.00
5996;BME280;3026;53.612;7.278;2023-03-14T08:01:01;98807.59;;;4.66;100.00
5996;BME280;3026;53.612;7.278;2023-03-14T08:03:28;98815.03;;;4.64;100.00
5996;BME280;3026;53.612;7.278;2023-03-14T08:05:55;98825.84;;;4.64;100.00
5996;BME280;3026;53.612;7.278;2023-03-14T08:08:22;98825.84;;;4.64;100.00
5996;BME280;3026;53.612;7.278;2023-03-14T08:10:49;98847.50;;;4.71;100.00
5996;BME280;3026;53.612;7.278;2023-03-14T08:13:18;98851.69;;;4.74;100.00
5996;BME280;3026;53.612;7.278;2023-03-14T08:15:47;98865.50;;;4.79;100.00
5996;BME280;3026;53.612;7.278;2023-03-14T08:18:14;98865.13;;;4.82;100.00
5996;BME280;3026;53.612;7.278;2023-03-14T08:20:41;98866.44;;;4.86;100.00
5996;BME280;3026;53.612;7.278;2023-03-14T08:23:08;98871.09;;;4.92;100.00
5996;BME280;3026;53.612;7.278;2023-03-14T08:25:35;98888.25;;;4.99;100.00
5996;BME280;3026;53.612;7.278;2023-03-14T08:28:02;98888.59;;;4.96;100.00
5996;BME280;3026;53.612;7.278;2023-03-14T08:30:30;98900.38;;;5.03;100.00
5996;BME280;3026;53.612;7.278;2023-03-14T08:32:57;98913.31;;;5.08;100.00
5996;BME280;3026;53.612;7.278;2023-03-14T08:35:24;98926.28;;;5.12;100.00
5996;BME280;3026;53.612;7.278;2023-03-14T08:37:52;98924.59;;;5.11;100.00
5996;BME280;3026;53.612;7.278;2023-03-14T08:40:19;98931.31;;;5.15;100.00
5996;BME280;3026;53.612;7.278;2023-03-14T08:42:46;98945.75;;;5.22;100.00
5996;BME280;3026;53.612;7.278;2023-03-14T08:45:15;98943.72;;;5.24;100.00
5996;BME280;3026;53.612;7.278;2023-03-14T08:47:44;98955.81;;;5.28;100.00
5996;BME280;3026;53.612;7.278;2023-03-14T08:50:12;98959.47;;;5.36;100.00
5996;BME280;3026;53.612;7.278;2023-03-14T08:52:39;98966.63;;;5.43;100.00
5996;BME280;3026;53.612;7.278;2023-03-14T08:55:08;98980.91;;;5.52;100.00
5996;BME280;3026;53.612;7.278;2023-03-14T08:57:35;98987.53;;;5.64;100.00
5996;BME280;3026;53.612;7.278;2023-03-14T09:00:03;99008.06;;;5.73;100.00
5996;BME280;3026;53.612;7.278;2023-03-14T09:02:35;99007.47;;;5.78;100.00
5996;BME280;3026;53.612;7.278;2023-03-14T09:05:04;99015.69;;;5.84;100.00
5996;BME280;3026;53.612;7.278;2023-03-14T09:07:31;99012.16;;;5.84;100.00
5996;BME280;3026;53.612;7.278;2023-03-14T09:09:58;99018.78;;;5.81;100.00
5996;BME280;3026;53.612;7.278;2023-03-14T09:12:25;99038.81;;;5.87;100.00
5996;BME280;3026;53.612;7.278;2023-03-14T09:14:52;99040.56;;;6.03;100.00
5996;BME280;3026;53.612;7.278;2023-03-14T09:17:19;99044.16;;;6.10;100.00
5996;BME280;3026;53.612;7.278;2023-03-14T09:19:46;99048.06;;;6.22;100.00
5996;BME280;3026;53.612;7.278;2023-03-14T09:22:14;99055.72;;;6.33;100.00
5996;BME280;3026;53.612;7.278;2023-03-14T09:24:41;99062.06;;;6.40;100.00
5996;BME280;3026;53.612;7.278;2023-03-14T09:27:08;99068.03;;;6.51;100.00
5996;BME280;3026;53.612;7.278;2023-03-14T09:29:35;99060.25;;;6.62;100.00
5996;BME280;3026;53.612;7.278;2023-03-14T09:32:01;99073.09;;;6.75;100.00
5996;BME280;3026;53.612;7.278;2023-03-14T09:34:29;99082.13;;;6.82;100.00
5996;BME280;3026;53.612;7.278;2023-03-14T09:36:56;99087.09;;;6.79;100.00
5996;BME280;3026;53.612;7.278;2023-03-14T09:39:25;99093.34;;;6.79;100.00
5996;BME280;3026;53.612;7.278;2023-03-14T09:41:53;99105.94;;;6.87;100.00
5996;BME280;3026;53.612;7.278;2023-03-14T09:44:25;99116.47;;;6.96;100.00
5996;BME280;3026;53.612;7.278;2023-03-14T09:46:55;99124.72;;;6.88;100.00
5996;BME280;3026;53.612;7.278;2023-03-14T09:49:28;99145.00;;;6.78;100.00
5996;BME280;3026;53.612;7.278;2023-03-14T09:51:57;99146.31;;;6.67;100.00
5996;BME280;3026;53.612;7.278;2023-03-14T09:54:31;99156.91;;;6.62;100.00
5996;BME280;3026;53.612;7.278;2023-03-14T09:56:58;99167.06;;;6.60;100.00
5996;BME280;3026;53.612;7.278;2023-03-14T09:59:25;99180.25;;;6.63;100.00
5996;BME280;3026;53.612;7.278;2023-03-14T10:01:55;99193.78;;;6.63;100.00
5996;BME280;3026;53.612;7.278;2023-03-14T10:04:22;99197.72;;;6.60;100.00
5996;BME280;3026;53.612;7.278;2023-03-14T10:06:49;99216.19;;;6.57;100.00
5996;BME280;3026;53.612;7.278;2023-03-14T10:09:20;99217.19;;;6.56;100.00
5996;BME280;3026;53.612;7.278;2023-03-14T10:11:54;99224.69;;;6.54;100.00
5996;BME280;3026;53.612;7.278;2023-03-14T10:14:30;99248.94;;;6.47;100.00
5996;BME280;3026;53.612;7.278;2023-03-14T10:17:05;99253.25;;;6.41;100.00
5996;BME280;3026;53.612;7.278;2023-03-14T10:19:32;99260.72;;;6.39;100.00
5996;BME280;3026;53.612;7.278;2023-03-14T10:22:02;99269.84;;;6.38;100.00
5996;BME280;3026;53.612;7.278;2023-03-14T10:24:32;99277.53;;;6.50;100.00
5996;BME280;3026;53.612;7.278;2023-03-14T10:27:02;99300.22;;;6.63;100.00
5996;BME280;3026;53.612;7.278;2023-03-14T10:29:30;99301.16;;;6.70;100.00
5996;BME280;3026;53.612;7.278;2023-03-14T10:31:59;99308.28;;;6.71;100.00
5996;BME280;3026;53.612;7.278;2023-03-14T10:34:29;99324.63;;;6.78;100.00
5996;BME280;3026;53.612;7.278;2023-03-14T10:36:58;99328.16;;;6.79;100.00
5996;BME280;3026;53.612;7.278;2023-03-14T10:39:33;99335.28;;;6.94;100.00
5996;BME280;3026;53.612;7.278;2023-03-14T10:42:14;99343.69;;;6.99;100.00
5996;BME280;3026;53.612;7.278;2023-03-14T10:44:41;99346.13;;;6.94;100.00
5996;BME280;3026;53.612;7.278;2023-03-14T10:47:17;99345.38;;;7.00;100.00
5996;BME280;3026;53.612;7.278;2023-03-14T10:49:46;99354.34;;;7.16;100.00
5996;BME280;3026;53.612;7.278;2023-03-14T10:52:17;99363.53;;;7.29;100.00
5996;BME280;3026;53.612;7.278;2023-03-14T10:54:47;99375.59;;;7.42;100.00
5996;BME280;3026;53.612;7.278;2023-03-14T10:57:19;99386.13;;;7.51;100.00
5996;BME280;3026;53.612;7.278;2023-03-14T10:59:46;99396.22;;;7.57;100.00
5996;BME280;3026;53.612;7.278;2023-03-14T11:02:23;99408.31;;;7.55;100.00
5996;BME280;3026;53.612;7.278;2023-03-14T11:05:02;99416.63;;;7.53;100.00
5996;BME280;3026;53.612;7.278;2023-03-14T11:07:33;99425.69;;;7.46;100.00
5996;BME280;3026;53.612;7.278;2023-03-14T11:10:11;99424.84;;;7.45;100.00
5996;BME280;3026;53.612;7.278;2023-03-14T11:12:48;99434.22;;;7.57;100.00
5996;BME280;3026;53.612;7.278;2023-03-14T11:15:23;99441.09;;;7.75;100.00
5996;BME280;3026;53.612;7.278;2023-03-14T11:18:08;99448.25;;;7.76;100.00
5996;BME280;3026;53.612;7.278;2023-03-14T11:20:44;99462.34;;;7.71;100.00
5996;BME280;3026;53.612;7.278;2023-03-14T11:23:15;99467.88;;;7.78;100.00
5996;BME280;3026;53.612;7.278;2023-03-14T11:25:47;99470.31;;;7.73;100.00
5996;BME280;3026;53.612;7.278;2023-03-14T11:28:24;99479.47;;;7.72;100.00
5996;BME280;3026;53.612;7.278;2023-03-14T11:30:55;99492.56;;;7.83;100.00
5996;BME280;3026;53.612;7.278;2023-03-14T11:33:25;99506.44;;;7.88;100.00
5996;BME280;3026;53.612;7.278;2023-03-14T11:35:58;99506.31;;;7.96;100.00
5996;BME280;3026;53.612;7.278;2023-03-14T11:38:32;99527.94;;;8.04;100.00
5996;BME280;3026;53.612;7.278;2023-03-14T11:41:01;99524.28;;;8.12;100.00
5996;BME280;3026;53.612;7.278;2023-03-14T11:43:32;99527.06;;;8.18;100.00
5996;BME280;3026;53.612;7.278;2023-03-14T11:46:08;99544.22;;;8.34;100.00
5996;BME280;3026;53.612;7.278;2023-03-14T11:48:42;99536.34;;;8.39;100.00
5996;BME280;3026;53.612;7.278;2023-03-14T11:51:17;99551.13;;;8.51;100.00
5996;BME280;3026;53.612;7.278;2023-03-14T11:53:55;99547.00;;;8.55;100.00
5996;BME280;3026;53.612;7.278;2023-03-14T11:56:29;99560.75;;;8.54;100.00
5996;BME280;3026;53.612;7.278;2023-03-14T11:59:04;99574.72;;;8.51;100.00
5996;BME280;3026;53.612;7.278;2023-03-14T12:01:40;99578.13;;;8.38;100.00
5996;BME280;3026;53.612;7.278;2023-03-14T12:04:15;99575.75;;;8.20;100.00
5996;BME280;3026;53.612;7.278;2023-03-14T12:06:48;99582.34;;;8.11;100.00
5996;BME280;3026;53.612;7.278;2023-03-14T12:09:16;99592.06;;;7.90;100.00
5996;BME280;3026;53.612;7.278;2023-03-14T12:11:47;99605.97;;;7.73;100.00
5996;BME280;3026;53.612;7.278;2023-03-14T12:14:23;99610.78;;;7.63;100.00
5996;BME280;3026;53.612;7.278;2023-03-14T12:16:54;99608.78;;;7.79;100.00
5996;BME280;3026;53.612;7.278;2023-03-14T12:19:37;99615.66;;;8.05;100.00
5996;BME280;3026;53.612;7.278;2023-03-14T12:22:28;99637.75;;;8.16;100.00
5996;BME280;3026;53.612;7.278;2023-03-14T12:25:00;99642.66;;;8.36;100.00
5996;BME280;3026;53.612;7.278;2023-03-14T12:30:34;99641.16;;;8.48;100.00
5996;BME280;3026;53.612;7.278;2023-03-14T12:33:14;99663.25;;;8.60;100.00
5996;BME280;3026;53.612;7.278;2023-03-14T12:35:46;99653.22;;;8.60;100.00
5996;BME280;3026;53.612;7.278;2023-03-14T12:38:17;99661.34;;;8.31;100.00
5996;BME280;3026;53.612;7.278;2023-03-14T12:40:54;99673.03;;;8.16;100.00
5996;BME280;3026;53.612;7.278;2023-03-14T12:43:26;99676.09;;;7.99;100.00
5996;BME280;3026;53.612;7.278;2023-03-14T12:46:20;99684.78;;;7.94;100.00
5996;BME280;3026;53.612;7.278;2023-03-14T12:48:49;99693.53;;;8.04;100.00
5996;BME280;3026;53.612;7.278;2023-03-14T12:51:18;99694.69;;;8.25;100.00
5996;BME280;3026;53.612;7.278;2023-03-14T12:54:10;99698.56;;;8.45;100.00
5996;BME280;3026;53.612;7.278;2023-03-14T12:56:47;99714.69;;;8.61;100.00
5996;BME280;3026;53.612;7.278;2023-03-14T12:59:29;99711.41;;;8.66;100.00
5996;BME280;3026;53.612;7.278;2023-03-14T13:02:00;99711.59;;;8.50;100.00
5996;BME280;3026;53.612;7.278;2023-03-14T13:04:31;99730.00;;;8.25;100.00
5996;BME280;3026;53.612;7.278;2023-03-14T13:07:00;99736.31;;;8.02;100.00
5996;BME280;3026;53.612;7.278;2023-03-14T13:10:02;99740.53;;;7.82;100.00
5996;BME280;3026;53.612;7.278;2023-03-14T13:12:37;99738.97;;;7.87;100.00
5996;BME280;3026;53.612;7.278;2023-03-14T13:15:16;99741.84;;;7.86;100.00
5996;BME280;3026;53.612;7.278;2023-03-14T13:17:46;99758.97;;;7.86;100.00
5996;BME280;3026;53.612;7.278;2023-03-14T13:20:17;99758.09;;;7.71;100.00
5996;BME280;3026;53.612;7.278;2023-03-14T13:22:47;99767.19;;;7.55;100.00
5996;BME280;3026;53.612;7.278;2023-03-14T13:25:16;99775.00;;;7.50;100.00
5996;BME280;3026;53.612;7.278;2023-03-14T13:27:46;99779.09;;;7.46;100.00
5996;BME280;3026;53.612;7.278;2023-03-14T13:30:22;99785.16;;;7.56;100.00